sensor_id;sensor_type;location;lat;lon;timestamp;temperature;humidity
13928;DHT22;7036;50.834;4.718;2023-04-19T00:00:48;18.90;55.30
13928;DHT22;7036;50.834;4.718;2023-04-19T00:03:15;18.90;55.30
13928;DHT22;7036;50.834;4.718;2023-04-19T00:05:43;18.90;55.40
13928;DHT22;7036;50.834;4.718;2023-04-19T00:08:10;18.90;55.30
13928;DHT22;7036;50.834;4.718;2023-04-19T00:10:39;18.90;55.50
13928;DHT22;7036;50.834;4.718;2023-04-19T00:13:06;18.90;55.40
13928;DHT22;7036;50.834;4.718;2023-04-19T00:15:33;18.90;55.30
13928;DHT22;7036;50.834;4.718;2023-04-19T00:18:01;18.90;55.50
13928;DHT22;7036;50.834;4.718;2023-04-19T00:20:29;18.80;55.40
13928;DHT22;7036;50.834;4.718;2023-04-19T00:22:57;18.80;55.40
13928;DHT22;7036;50.834;4.718;2023-04-19T00:25:25;18.80;55.40
13928;DHT22;7036;50.834;4.718;2023-04-19T00:27:53;18.80;55.40
13928;DHT22;7036;50.834;4.718;2023-04-19T00:30:22;18.80;55.40
13928;DHT22;7036;50.834;4.718;2023-04-19T00:32:49;18.80;55.30
13928;DHT22;7036;50.834;4.718;2023-04-19T00:35:17;18.80;55.40
13928;DHT22;7036;50.834;4.718;2023-04-19T00:37:44;18.90;55.40
13928;DHT22;7036;50.834;4.718;2023-04-19T00:40:12;18.80;55.40
13928;DHT22;7036;50.834;4.718;2023-04-19T00:42:40;18.80;55.40
13928;DHT22;7036;50.834;4.718;2023-04-19T00:45:09;18.80;55.40
13928;DHT22;7036;50.834;4.718;2023-04-19T00:47:36;18.80;55.50
13928;DHT22;7036;50.834;4.718;2023-04-19T00:50:03;18.80;55.30
13928;DHT22;7036;50.834;4.718;2023-04-19T00:52:31;18.80;55.40
13928;DHT22;7036;50.834;4.718;2023-04-19T00:54:58;18.80;55.30
13928;DHT22;7036;50.834;4.718;2023-04-19T00:57:25;18.80;54.70
13928;DHT22;7036;50.834;4.718;2023-04-19T00:59:53;18.80;55.40
13928;DHT22;7036;50.834;4.718;2023-04-19T01:02:21;18.80;55.40
13928;DHT22;7036;50.834;4.718;2023-04-19T01:04:49;18.80;55.40
13928;DHT22;7036;50.834;4.718;2023-04-19T01:07:17;18.80;55.40
13928;DHT22;7036;50.834;4.718;2023-04-19T01:09:44;18.80;55.30
13928;DHT22;7036;50.834;4.718;2023-04-19T01:12:12;18.70;55.40
13928;DHT22;7036;50.834;4.718;2023-04-19T01:14:41;18.70;55.40
13928;DHT22;7036;50.834;4.718;2023-04-19T01:17:08;18.70;55.30
13928;DHT22;7036;50.834;4.718;2023-04-19T01:19:36;18.70;55.20
13928;DHT22;7036;50.834;4.718;2023-04-19T01:22:03;18.70;55.20
13928;DHT22;7036;50.834;4.718;2023-04-19T01:24:30;18.70;55.30
13928;DHT22;7036;50.834;4.718;2023-04-19T01:26:58;18.70;55.40
13928;DHT22;7036;50.834;4.718;2023-04-19T01:29:26;18.70;55.40
13928;DHT22;7036;50.834;4.718;2023-04-19T01:31:54;18.70;55.40
13928;DHT22;7036;50.834;4.718;2023-04-19T01:34:23;18.70;55.40
13928;DHT22;7036;50.834;4.718;2023-04-19T01:36:50;18.70;55.30
13928;DHT22;7036;50.834;4.718;2023-04-19T01:39:18;18.70;55.40
13928;DHT22;7036;50.834;4.718;2023-04-19T01:41:45;18.70;55.30
13928;DHT22;7036;50.834;4.718;2023-04-19T01:44:14;18.70;55.40
13928;DHT22;7036;50.834;4.718;2023-04-19T01:46:40;18.70;55.30
13928;DHT22;7036;50.834;4.718;2023-04-19T01:49:08;18.70;55.40
13928;DHT22;7036;50.834;4.718;2023-04-19T01:51:37;18.70;55.40
13928;DHT22;7036;50.834;4.718;2023-04-19T01:54:03;18.60;56.00
13928;DHT22;7036;50.834;4.718;2023-04-19T01:56:31;18.60;55.40
13928;DHT22;7036;50.834;4.718;2023-04-19T01:58:58;18.60;55.40
13928;DHT22;7036;50.834;4.718;2023-04-19T02:01:26;18.60;55.40
13928;DHT22;7036;50.834;4.718;2023-04-19T02:03:54;18.60;55.50
13928;DHT22;7036;50.834;4.718;2023-04-19T02:06:22;18.60;55.50
13928;DHT22;7036;50.834;4.718;2023-04-19T02:08:50;18.60;55.50
13928;DHT22;7036;50.834;4.718;2023-04-19T02:11:18;18.60;55.50
13928;DHT22;7036;50.834;4.718;2023-04-19T02:13:46;18.60;55.60
13928;DHT22;7036;50.834;4.718;2023-04-19T02:16:14;18.60;55.60
13928;DHT22;7036;50.834;4.718;2023-04-19T02:18:42;18.60;55.80
13928;DHT22;7036;50.834;4.718;2023-04-19T02:21:09;18.60;55.40
13928;DHT22;7036;50.834;4.718;2023-04-19T02:23:37;18.60;55.50
13928;DHT22;7036;50.834;4.718;2023-04-19T02:26:05;18.60;55.50
13928;DHT22;7036;50.834;4.718;2023-04-19T02:28:32;18.60;55.40
13928;DHT22;7036;50.834;4.718;2023-04-19T02:31:04;18.60;55.40
13928;DHT22;7036;50.834;4.718;2023-04-19T02:33:28;18.60;55.40
13928;DHT22;7036;50.834;4.718;2023-04-19T02:35:56;18.60;55.50
13928;DHT22;7036;50.834;4.718;2023-04-19T02:38:24;18.60;55.50
13928;DHT22;7036;50.834;4.718;2023-04-19T02:40:51;18.60;55.40
13928;DHT22;7036;50.834;4.718;2023-04-19T02:43:19;18.60;55.50
13928;DHT22;7036;50.834;4.718;2023-04-19T02:45:47;18.60;55.60
13928;DHT22;7036;50.834;4.718;2023-04-19T02:48:15;18.60;55.60
13928;DHT22;7036;50.834;4.718;2023-04-19T02:50:43;18.60;55.70
13928;DHT22;7036;50.834;4.718;2023-04-19T02:53:12;18.50;55.60
13928;DHT22;7036;50.834;4.718;2023-04-19T02:55:39;18.50;55.50
13928;DHT22;7036;50.834;4.718;2023-04-19T02:58:06;18.60;55.50
13928;DHT22;7036;50.834;4.718;2023-04-19T03:00:34;18.50;55.60
13928;DHT22;7036;50.834;4.718;2023-04-19T03:03:01;18.50;55.50
13928;DHT22;7036;50.834;4.718;2023-04-19T03:05:29;18.50;55.70
13928;DHT22;7036;50.834;4.718;2023-04-19T03:07:57;18.50;55.70
13928;DHT22;7036;50.834;4.718;2023-04-19T03:10:25;18.50;55.90
13928;DHT22;7036;50.834;4.718;2023-04-19T03:12:53;18.60;55.60
13928;DHT22;7036;50.834;4.718;2023-04-19T03:15:21;18.50;55.60
13928;DHT22;7036;50.834;4.718;2023-04-19T03:17:50;18.50;55.60
13928;DHT22;7036;50.834;4.718;2023-04-19T03:20:17;18.50;55.50
13928;DHT22;7036;50.834;4.718;2023-04-19T03:22:45;18.50;55.60
13928;DHT22;7036;50.834;4.718;2023-04-19T03:25:12;18.50;55.50
13928;DHT22;7036;50.834;4.718;2023-04-19T03:27:40;18.50;55.60
13928;DHT22;7036;50.834;4.718;2023-04-19T03:30:08;18.50;55.50
13928;DHT22;7036;50.834;4.718;2023-04-19T03:32:36;18.50;55.60
13928;DHT22;7036;50.834;4.718;2023-04-19T03:35:04;18.50;55.50
13928;DHT22;7036;50.834;4.718;2023-04-19T03:37:31;18.50;55.70
13928;DHT22;7036;50.834;4.718;2023-04-19T03:39:58;18.50;55.50
13928;DHT22;7036;50.834;4.718;2023-04-19T03:42:25;18.50;55.50
13928;DHT22;7036;50.834;4.718;2023-04-19T03:44:53;18.50;55.70
13928;DHT22;7036;50.834;4.718;2023-04-19T03:47:21;18.50;55.70
13928;DHT22;7036;50.834;4.718;2023-04-19T03:49:48;18.50;55.60
13928;DHT22;7036;50.834;4.718;2023-04-19T03:52:17;18.50;55.70
13928;DHT22;7036;50.834;4.718;2023-04-19T03:54:44;18.50;55.50
13928;DHT22;7036;50.834;4.718;2023-04-19T03:57:11;18.40;55.50
13928;DHT22;7036;50.834;4.718;2023-04-19T03:59:38;18.50;55.60
13928;DHT22;7036;50.834;4.718;2023-04-19T04:02:05;18.50;55.60
13928;DHT22;7036;50.834;4.718;2023-04-19T04:04:33;18.40;55.50
13928;DHT22;7036;50.834;4.718;2023-04-19T04:07:02;18.40;55.60
13928;DHT22;7036;50.834;4.718;2023-04-19T04:09:29;18.40;55.50
13928;DHT22;7036;50.834;4.718;2023-04-19T04:11:56;18.40;55.50
13928;DHT22;7036;50.834;4.718;2023-04-19T04:14:23;18.40;55.60
13928;DHT22;7036;50.834;4.718;2023-04-19T04:16:51;18.40;55.60
13928;DHT22;7036;50.834;4.718;2023-04-19T04:19:18;18.40;55.40
13928;DHT22;7036;50.834;4.718;2023-04-19T04:21:46;18.40;55.60
13928;DHT22;7036;50.834;4.718;2023-04-19T04:24:14;18.40;55.40
13928;DHT22;7036;50.834;4.718;2023-04-19T04:26:41;18.40;55.50
13928;DHT22;7036;50.834;4.718;2023-04-19T04:29:14;18.40;55.60
13928;DHT22;7036;50.834;4.718;2023-04-19T04:31:41;18.40;55.50
13928;DHT22;7036;50.834;4.718;2023-04-19T04:34:09;18.40;55.60
13928;DHT22;7036;50.834;4.718;2023-04-19T04:36:37;18.40;55.50
13928;DHT22;7036;50.834;4.718;2023-04-19T04:39:04;18.40;55.50
13928;DHT22;7036;50.834;4.718;2023-04-19T04:41:31;18.40;55.40
13928;DHT22;7036;50.834;4.718;2023-04-19T04:43:59;18.40;55.60
13928;DHT22;7036;50.834;4.718;2023-04-19T04:46:26;18.40;55.50
13928;DHT22;7036;50.834;4.718;2023-04-19T04:48:54;18.40;55.60
13928;DHT22;7036;50.834;4.718;2023-04-19T04:51:21;18.40;55.50
13928;DHT22;7036;50.834;4.718;2023-04-19T04:53:49;18.40;55.60
13928;DHT22;7036;50.834;4.718;2023-04-19T04:56:17;18.40;55.50
13928;DHT22;7036;50.834;4.718;2023-04-19T04:58:44;18.40;55.60
13928;DHT22;7036;50.834;4.718;2023-04-19T05:01:12;18.40;55.50
13928;DHT22;7036;50.834;4.718;2023-04-19T05:03:41;18.40;55.70
13928;DHT22;7036;50.834;4.718;2023-04-19T05:06:07;18.40;55.60
13928;DHT22;7036;50.834;4.718;2023-04-19T05:08:34;18.40;55.50
13928;DHT22;7036;50.834;4.718;2023-04-19T05:11:02;18.40;55.50
13928;DHT22;7036;50.834;4.718;2023-04-19T05:13:30;18.40;55.60
13928;DHT22;7036;50.834;4.718;2023-04-19T05:15:58;18.40;55.50
13928;DHT22;7036;50.834;4.718;2023-04-19T05:18:24;18.40;55.50
13928;DHT22;7036;50.834;4.718;2023-04-19T05:20:52;18.40;55.50
13928;DHT22;7036;50.834;4.718;2023-04-19T05:23:19;18.40;55.60
13928;DHT22;7036;50.834;4.718;2023-04-19T05:25:47;18.40;55.60
13928;DHT22;7036;50.834;4.718;2023-04-19T05:28:14;18.40;55.50
13928;DHT22;7036;50.834;4.718;2023-04-19T05:30:42;18.30;55.70
13928;DHT22;7036;50.834;4.718;2023-04-19T05:33:10;18.40;55.60
13928;DHT22;7036;50.834;4.718;2023-04-19T05:35:37;18.30;55.50
13928;DHT22;7036;50.834;4.718;2023-04-19T05:38:05;18.40;55.80
13928;DHT22;7036;50.834;4.718;2023-04-19T05:40:34;18.30;55.60
13928;DHT22;7036;50.834;4.718;2023-04-19T05:43:02;18.30;55.60
13928;DHT22;7036;50.834;4.718;2023-04-19T05:45:28;18.30;55.60
13928;DHT22;7036;50.834;4.718;2023-04-19T05:47:55;18.30;55.60
13928;DHT22;7036;50.834;4.718;2023-04-19T05:50:23;18.30;55.60
13928;DHT22;7036;50.834;4.718;2023-04-19T05:52:51;18.30;55.70
13928;DHT22;7036;50.834;4.718;2023-04-19T05:55:18;18.30;55.60
13928;DHT22;7036;50.834;4.718;2023-04-19T05:57:46;18.30;56.00
13928;DHT22;7036;50.834;4.718;2023-04-19T06:00:13;18.30;55.70
13928;DHT22;7036;50.834;4.718;2023-04-19T06:02:40;18.30;55.70
13928;DHT22;7036;50.834;4.718;2023-04-19T06:05:08;18.30;55.80
13928;DHT22;7036;50.834;4.718;2023-04-19T06:07:36;18.30;55.80
13928;DHT22;7036;50.834;4.718;2023-04-19T06:10:04;18.30;55.70
13928;DHT22;7036;50.834;4.718;2023-04-19T06:12:31;18.30;55.70
13928;DHT22;7036;50.834;4.718;2023-04-19T06:14:59;18.30;55.80
13928;DHT22;7036;50.834;4.718;2023-04-19T06:17:26;18.30;55.70
13928;DHT22;7036;50.834;4.718;2023-04-19T06:19:54;18.30;55.90
13928;DHT22;7036;50.834;4.718;2023-04-19T06:22:21;18.30;55.80
13928;DHT22;7036;50.834;4.718;2023-04-19T06:24:49;18.30;55.80
13928;DHT22;7036;50.834;4.718;2023-04-19T06:27:17;18.30;55.80
13928;DHT22;7036;50.834;4.718;2023-04-19T06:29:44;18.30;55.80
13928;DHT22;7036;50.834;4.718;2023-04-19T06:32:12;18.30;55.90
13928;DHT22;7036;50.834;4.718;2023-04-19T06:34:39;18.30;55.80
13928;DHT22;7036;50.834;4.718;2023-04-19T06:37:07;18.30;56.20
13928;DHT22;7036;50.834;4.718;2023-04-19T06:39:35;18.20;56.00
13928;DHT22;7036;50.834;4.718;2023-04-19T06:42:02;18.30;55.90
13928;DHT22;7036;50.834;4.718;2023-04-19T06:44:30;18.30;56.00
13928;DHT22;7036;50.834;4.718;2023-04-19T06:46:57;18.30;55.90
13928;DHT22;7036;50.834;4.718;2023-04-19T06:49:25;18.30;56.10
13928;DHT22;7036;50.834;4.718;2023-04-19T06:51:53;18.30;56.00
13928;DHT22;7036;50.834;4.718;2023-04-19T06:54:21;18.40;55.90
13928;DHT22;7036;50.834;4.718;2023-04-19T06:56:48;18.40;55.80
13928;DHT22;7036;50.834;4.718;2023-04-19T06:59:17;18.40;55.80
13928;DHT22;7036;50.834;4.718;2023-04-19T07:01:46;18.50;55.80
13928;DHT22;7036;50.834;4.718;2023-04-19T07:04:13;18.50;55.70
13928;DHT22;7036;50.834;4.718;2023-04-19T07:06:43;18.50;55.80
13928;DHT22;7036;50.834;4.718;2023-04-19T07:09:11;18.50;55.70
13928;DHT22;7036;50.834;4.718;2023-04-19T07:11:39;18.60;55.80
13928;DHT22;7036;50.834;4.718;2023-04-19T07:14:06;18.60;55.70
13928;DHT22;7036;50.834;4.718;2023-04-19T07:16:35;18.60;55.80
13928;DHT22;7036;50.834;4.718;2023-04-19T07:19:04;18.60;55.70
13928;DHT22;7036;50.834;4.718;2023-04-19T07:21:31;18.70;55.70
13928;DHT22;7036;50.834;4.718;2023-04-19T07:24:00;18.70;55.80
13928;DHT22;7036;50.834;4.718;2023-04-19T07:26:28;18.70;55.80
13928;DHT22;7036;50.834;4.718;2023-04-19T07:28:55;18.70;55.80
13928;DHT22;7036;50.834;4.718;2023-04-19T07:31:22;18.70;55.90
13928;DHT22;7036;50.834;4.718;2023-04-19T07:33:50;18.70;56.00
13928;DHT22;7036;50.834;4.718;2023-04-19T07:36:17;18.70;56.00
13928;DHT22;7036;50.834;4.718;2023-04-19T07:38:45;18.70;56.00
13928;DHT22;7036;50.834;4.718;2023-04-19T07:41:13;18.70;56.10
13928;DHT22;7036;50.834;4.718;2023-04-19T07:43:41;18.70;56.10
13928;DHT22;7036;50.834;4.718;2023-04-19T07:46:09;18.70;56.20
13928;DHT22;7036;50.834;4.718;2023-04-19T07:48:38;18.70;56.20
13928;DHT22;7036;50.834;4.718;2023-04-19T07:51:14;18.70;56.00
13928;DHT22;7036;50.834;4.718;2023-04-19T07:53:40;18.70;56.10
13928;DHT22;7036;50.834;4.718;2023-04-19T07:56:09;18.70;56.00
13928;DHT22;7036;50.834;4.718;2023-04-19T07:58:37;18.80;56.10
13928;DHT22;7036;50.834;4.718;2023-04-19T08:01:05;18.80;56.10
13928;DHT22;7036;50.834;4.718;2023-04-19T08:03:33;18.80;56.10
13928;DHT22;7036;50.834;4.718;2023-04-19T08:06:02;18.80;56.10
13928;DHT22;7036;50.834;4.718;2023-04-19T08:08:27;18.80;56.10
13928;DHT22;7036;50.834;4.718;2023-04-19T08:10:54;18.80;56.00
13928;DHT22;7036;50.834;4.718;2023-04-19T08:13:22;18.80;55.30
13928;DHT22;7036;50.834;4.718;2023-04-19T08:15:50;18.90;56.10
13928;DHT22;7036;50.834;4.718;2023-04-19T08:18:18;18.90;56.10
13928;DHT22;7036;50.834;4.718;2023-04-19T08:20:46;18.90;56.10
13928;DHT22;7036;50.834;4.718;2023-04-19T08:23:13;18.90;56.10
13928;DHT22;7036;50.834;4.718;2023-04-19T08:25:41;18.90;56.40
13928;DHT22;7036;50.834;4.718;2023-04-19T08:28:10;18.90;56.10
13928;DHT22;7036;50.834;4.718;2023-04-19T08:30:37;18.90;56.00
13928;DHT22;7036;50.834;4.718;2023-04-19T08:33:06;18.90;56.30
13928;DHT22;7036;50.834;4.718;2023-04-19T08:35:33;18.90;56.10
13928;DHT22;7036;50.834;4.718;2023-04-19T08:38:00;18.90;56.40
13928;DHT22;7036;50.834;4.718;2023-04-19T08:40:29;18.90;56.40
13928;DHT22;7036;50.834;4.718;2023-04-19T08:42:56;18.90;56.30
13928;DHT22;7036;50.834;4.718;2023-04-19T08:45:27;18.90;56.50
13928;DHT22;7036;50.834;4.718;2023-04-19T08:47:55;18.90;56.40
13928;DHT22;7036;50.834;4.718;2023-04-19T08:50:21;19.00;56.50
13928;DHT22;7036;50.834;4.718;2023-04-19T08:52:48;19.00;56.50
13928;DHT22;7036;50.834;4.718;2023-04-19T08:55:16;19.00;56.50
13928;DHT22;7036;50.834;4.718;2023-04-19T08:57:44;19.00;56.50
13928;DHT22;7036;50.834;4.718;2023-04-19T09:00:11;19.00;56.40
13928;DHT22;7036;50.834;4.718;2023-04-19T09:02:51;19.00;56.40
13928;DHT22;7036;50.834;4.718;2023-04-19T09:05:18;19.00;56.40
13928;DHT22;7036;50.834;4.718;2023-04-19T09:07:44;19.00;56.30
13928;DHT22;7036;50.834;4.718;2023-04-19T09:10:12;18.90;56.00
13928;DHT22;7036;50.834;4.718;2023-04-19T09:12:39;18.90;56.00
13928;DHT22;7036;50.834;4.718;2023-04-19T09:15:07;18.90;56.10
13928;DHT22;7036;50.834;4.718;2023-04-19T09:17:35;18.90;56.10
13928;DHT22;7036;50.834;4.718;2023-04-19T09:20:03;18.90;56.20
13928;DHT22;7036;50.834;4.718;2023-04-19T09:22:31;18.90;56.20
13928;DHT22;7036;50.834;4.718;2023-04-19T09:24:58;19.00;56.30
13928;DHT22;7036;50.834;4.718;2023-04-19T09:27:27;19.00;56.30
13928;DHT22;7036;50.834;4.718;2023-04-19T09:29:55;19.00;56.30
13928;DHT22;7036;50.834;4.718;2023-04-19T09:32:22;19.00;56.20
13928;DHT22;7036;50.834;4.718;2023-04-19T09:34:56;19.00;55.60
13928;DHT22;7036;50.834;4.718;2023-04-19T09:37:22;19.00;56.30
13928;DHT22;7036;50.834;4.718;2023-04-19T09:39:49;19.00;56.20
13928;DHT22;7036;50.834;4.718;2023-04-19T09:42:17;19.00;56.40
13928;DHT22;7036;50.834;4.718;2023-04-19T09:44:59;19.00;56.30
13928;DHT22;7036;50.834;4.718;2023-04-19T09:47:27;19.00;56.40
13928;DHT22;7036;50.834;4.718;2023-04-19T09:50:08;19.00;56.30
13928;DHT22;7036;50.834;4.718;2023-04-19T09:52:34;19.00;56.40
13928;DHT22;7036;50.834;4.718;2023-04-19T09:55:02;19.00;56.40
13928;DHT22;7036;50.834;4.718;2023-04-19T09:57:30;19.00;56.50
13928;DHT22;7036;50.834;4.718;2023-04-19T09:59:59;19.00;56.50
13928;DHT22;7036;50.834;4.718;2023-04-19T10:02:29;19.00;56.50
13928;DHT22;7036;50.834;4.718;2023-04-19T10:04:55;19.00;56.50
13928;DHT22;7036;50.834;4.718;2023-04-19T10:07:23;19.00;56.50
13928;DHT22;7036;50.834;4.718;2023-04-19T10:09:51;19.10;56.60
13928;DHT22;7036;50.834;4.718;2023-04-19T10:12:18;19.00;56.50
13928;DHT22;7036;50.834;4.718;2023-04-19T10:14:45;19.10;55.80
13928;DHT22;7036;50.834;4.718;2023-04-19T10:17:12;19.10;56.50
13928;DHT22;7036;50.834;4.718;2023-04-19T10:19:40;19.00;56.60
13928;DHT22;7036;50.834;4.718;2023-04-19T10:22:08;19.10;56.60
13928;DHT22;7036;50.834;4.718;2023-04-19T10:24:35;19.10;56.50
13928;DHT22;7036;50.834;4.718;2023-04-19T10:27:12;19.10;56.40
13928;DHT22;7036;50.834;4.718;2023-04-19T10:29:54;19.10;56.50
13928;DHT22;7036;50.834;4.718;2023-04-19T10:32:20;19.10;56.50
13928;DHT22;7036;50.834;4.718;2023-04-19T10:34:47;19.10;56.50
13928;DHT22;7036;50.834;4.718;2023-04-19T10:37:15;19.10;56.50
13928;DHT22;7036;50.834;4.718;2023-04-19T10:39:43;19.10;56.60
13928;DHT22;7036;50.834;4.718;2023-04-19T10:42:11;19.10;56.50
13928;DHT22;7036;50.834;4.718;2023-04-19T10:44:40;19.10;56.50
13928;DHT22;7036;50.834;4.718;2023-04-19T10:47:06;19.10;56.40
13928;DHT22;7036;50.834;4.718;2023-04-19T10:49:44;19.20;56.60
13928;DHT22;7036;50.834;4.718;2023-04-19T10:52:26;19.10;56.40
13928;DHT22;7036;50.834;4.718;2023-04-19T10:54:55;19.20;56.40
13928;DHT22;7036;50.834;4.718;2023-04-19T10:57:22;19.10;56.10
13928;DHT22;7036;50.834;4.718;2023-04-19T11:00:18;19.10;56.20
13928;DHT22;7036;50.834;4.718;2023-04-19T11:02:45;19.10;56.20
13928;DHT22;7036;50.834;4.718;2023-04-19T11:05:13;19.10;54.90
13928;DHT22;7036;50.834;4.718;2023-04-19T11:07:40;19.10;54.80
13928;DHT22;7036;50.834;4.718;2023-04-19T11:10:08;19.00;55.40
13928;DHT22;7036;50.834;4.718;2023-04-19T11:12:36;19.10;55.70
13928;DHT22;7036;50.834;4.718;2023-04-19T11:15:04;19.10;55.70
13928;DHT22;7036;50.834;4.718;2023-04-19T11:17:31;19.10;55.70
13928;DHT22;7036;50.834;4.718;2023-04-19T11:20:01;19.10;55.60
13928;DHT22;7036;50.834;4.718;2023-04-19T11:22:34;19.10;55.70
13928;DHT22;7036;50.834;4.718;2023-04-19T11:25:13;19.20;55.70
13928;DHT22;7036;50.834;4.718;2023-04-19T11:27:39;19.20;55.70
13928;DHT22;7036;50.834;4.718;2023-04-19T11:30:11;19.20;55.80
13928;DHT22;7036;50.834;4.718;2023-04-19T11:32:37;19.30;56.00
13928;DHT22;7036;50.834;4.718;2023-04-19T11:35:06;19.20;55.80
13928;DHT22;7036;50.834;4.718;2023-04-19T11:37:35;19.30;56.00
13928;DHT22;7036;50.834;4.718;2023-04-19T11:40:03;19.30;56.20
13928;DHT22;7036;50.834;4.718;2023-04-19T11:42:29;19.30;56.10
13928;DHT22;7036;50.834;4.718;2023-04-19T11:44:57;19.30;56.10
13928;DHT22;7036;50.834;4.718;2023-04-19T11:47:24;19.30;56.20
13928;DHT22;7036;50.834;4.718;2023-04-19T11:49:53;19.30;56.40
13928;DHT22;7036;50.834;4.718;2023-04-19T11:52:22;19.30;56.30
13928;DHT22;7036;50.834;4.718;2023-04-19T11:54:49;19.30;56.40
13928;DHT22;7036;50.834;4.718;2023-04-19T11:57:25;19.30;56.20
13928;DHT22;7036;50.834;4.718;2023-04-19T12:00:00;19.30;56.20
13928;DHT22;7036;50.834;4.718;2023-04-19T12:02:13;19.30;56.30
13928;DHT22;7036;50.834;4.718;2023-04-19T12:04:40;19.30;56.10
13928;DHT22;7036;50.834;4.718;2023-04-19T12:07:09;19.30;56.20
13928;DHT22;7036;50.834;4.718;2023-04-19T12:09:35;19.30;56.20
13928;DHT22;7036;50.834;4.718;2023-04-19T12:12:02;19.30;56.20
13928;DHT22;7036;50.834;4.718;2023-04-19T12:14:30;19.30;56.40
13928;DHT22;7036;50.834;4.718;2023-04-19T12:17:07;19.30;56.20
13928;DHT22;7036;50.834;4.718;2023-04-19T12:19:43;19.30;56.30
13928;DHT22;7036;50.834;4.718;2023-04-19T12:24:38;19.30;55.10
13928;DHT22;7036;50.834;4.718;2023-04-19T12:27:06;19.20;52.10
13928;DHT22;7036;50.834;4.718;2023-04-19T12:29:33;19.20;52.00
13928;DHT22;7036;50.834;4.718;2023-04-19T12:32:01;19.20;49.80
13928;DHT22;7036;50.834;4.718;2023-04-19T12:34:28;19.10;49.40
13928;DHT22;7036;50.834;4.718;2023-04-19T12:36:56;19.10;49.80
13928;DHT22;7036;50.834;4.718;2023-04-19T12:39:24;19.10;49.50
13928;DHT22;7036;50.834;4.718;2023-04-19T12:41:51;19.10;49.40
13928;DHT22;7036;50.834;4.718;2023-04-19T12:44:19;19.10;49.70
13928;DHT22;7036;50.834;4.718;2023-04-19T12:46:46;19.00;48.80
13928;DHT22;7036;50.834;4.718;2023-04-19T12:49:16;19.00;48.30
13928;DHT22;7036;50.834;4.718;2023-04-19T12:51:42;19.00;47.70
13928;DHT22;7036;50.834;4.718;2023-04-19T12:54:10;19.00;47.60
13928;DHT22;7036;50.834;4.718;2023-04-19T12:56:38;19.00;47.10
13928;DHT22;7036;50.834;4.718;2023-04-19T12:59:06;18.90;46.80
13928;DHT22;7036;50.834;4.718;2023-04-19T13:01:34;19.00;46.70
13928;DHT22;7036;50.834;4.718;2023-04-19T13:04:02;18.90;45.90
13928;DHT22;7036;50.834;4.718;2023-04-19T13:06:32;18.90;45.60
13928;DHT22;7036;50.834;4.718;2023-04-19T13:08:58;18.90;45.40
13928;DHT22;7036;50.834;4.718;2023-04-19T13:11:26;18.90;45.40
13928;DHT22;7036;50.834;4.718;2023-04-19T13:13:54;18.90;45.10
13928;DHT22;7036;50.834;4.718;2023-04-19T13:16:22;18.90;44.20
13928;DHT22;7036;50.834;4.718;2023-04-19T13:18:50;18.90;43.70
13928;DHT22;7036;50.834;4.718;2023-04-19T13:21:18;18.90;43.30
13928;DHT22;7036;50.834;4.718;2023-04-19T13:23:46;18.90;43.50
13928;DHT22;7036;50.834;4.718;2023-04-19T13:26:14;18.90;43.40
13928;DHT22;7036;50.834;4.718;2023-04-19T13:28:41;18.90;42.20
13928;DHT22;7036;50.834;4.718;2023-04-19T13:31:09;18.90;42.60
13928;DHT22;7036;50.834;4.718;2023-04-19T13:33:37;18.90;42.60
13928;DHT22;7036;50.834;4.718;2023-04-19T13:36:05;18.90;42.70
13928;DHT22;7036;50.834;4.718;2023-04-19T13:38:32;18.90;42.90
13928;DHT22;7036;50.834;4.718;2023-04-19T13:40:59;18.80;42.80
13928;DHT22;7036;50.834;4.718;2023-04-19T13:43:27;18.80;41.90
13928;DHT22;7036;50.834;4.718;2023-04-19T13:45:55;18.80;41.40
13928;DHT22;7036;50.834;4.718;2023-04-19T13:48:22;18.80;41.30
13928;DHT22;7036;50.834;4.718;2023-04-19T13:50:49;18.80;42.00
13928;DHT22;7036;50.834;4.718;2023-04-19T13:53:17;18.80;41.50
13928;DHT22;7036;50.834;4.718;2023-04-19T13:55:45;18.80;41.20
13928;DHT22;7036;50.834;4.718;2023-04-19T13:58:14;18.80;40.70
13928;DHT22;7036;50.834;4.718;2023-04-19T14:00:41;18.80;40.60
13928;DHT22;7036;50.834;4.718;2023-04-19T14:03:09;18.80;40.90
13928;DHT22;7036;50.834;4.718;2023-04-19T14:05:38;18.80;40.60
13928;DHT22;7036;50.834;4.718;2023-04-19T14:08:04;18.80;40.50
13928;DHT22;7036;50.834;4.718;2023-04-19T14:10:32;18.80;40.60
13928;DHT22;7036;50.834;4.718;2023-04-19T14:13:00;18.80;39.90
13928;DHT22;7036;50.834;4.718;2023-04-19T14:15:27;18.80;40.00
13928;DHT22;7036;50.834;4.718;2023-04-19T14:17:55;18.80;39.60
13928;DHT22;7036;50.834;4.718;2023-04-19T14:20:23;18.80;39.50
13928;DHT22;7036;50.834;4.718;2023-04-19T14:22:51;18.80;39.20
13928;DHT22;7036;50.834;4.718;2023-04-19T14:25:19;18.80;39.50
13928;DHT22;7036;50.834;4.718;2023-04-19T14:27:46;18.80;39.30
13928;DHT22;7036;50.834;4.718;2023-04-19T14:30:14;18.80;38.30
13928;DHT22;7036;50.834;4.718;2023-04-19T14:32:42;18.80;38.20
13928;DHT22;7036;50.834;4.718;2023-04-19T14:35:09;18.80;38.00
13928;DHT22;7036;50.834;4.718;2023-04-19T14:37:37;18.80;38.40
13928;DHT22;7036;50.834;4.718;2023-04-19T14:40:05;18.80;38.20
13928;DHT22;7036;50.834;4.718;2023-04-19T14:42:33;18.80;38.10
13928;DHT22;7036;50.834;4.718;2023-04-19T14:44:59;18.80;38.00
13928;DHT22;7036;50.834;4.718;2023-04-19T14:47:27;18.80;37.80
13928;DHT22;7036;50.834;4.718;2023-04-19T14:49:55;18.80;37.40
13928;DHT22;7036;50.834;4.718;2023-04-19T14:52:22;18.80;37.30
13928;DHT22;7036;50.834;4.718;2023-04-19T14:54:50;18.80;37.10
13928;DHT22;7036;50.834;4.718;2023-04-19T14:57:18;18.80;37.40
13928;DHT22;7036;50.834;4.718;2023-04-19T14:59:46;18.80;37.50
13928;DHT22;7036;50.834;4.718;2023-04-19T15:02:14;18.80;37.20
13928;DHT22;7036;50.834;4.718;2023-04-19T15:04:41;18.80;37.20
13928;DHT22;7036;50.834;4.718;2023-04-19T15:07:08;18.80;38.10
13928;DHT22;7036;50.834;4.718;2023-04-19T15:09:36;18.80;37.20
13928;DHT22;7036;50.834;4.718;2023-04-19T15:12:04;18.80;36.90
13928;DHT22;7036;50.834;4.718;2023-04-19T15:14:31;18.80;36.80
13928;DHT22;7036;50.834;4.718;2023-04-19T15:16:59;18.70;35.90
13928;DHT22;7036;50.834;4.718;2023-04-19T15:19:28;18.80;36.80
13928;DHT22;7036;50.834;4.718;2023-04-19T15:21:55;18.80;37.30
13928;DHT22;7036;50.834;4.718;2023-04-19T15:24:22;18.80;37.20
13928;DHT22;7036;50.834;4.718;2023-04-19T15:26:50;18.90;38.40
13928;DHT22;7036;50.834;4.718;2023-04-19T15:29:18;19.00;38.90
13928;DHT22;7036;50.834;4.718;2023-04-19T15:31:46;19.00;39.40
13928;DHT22;7036;50.834;4.718;2023-04-19T15:34:14;19.00;39.60
13928;DHT22;7036;50.834;4.718;2023-04-19T15:36:43;19.10;40.00
13928;DHT22;7036;50.834;4.718;2023-04-19T15:39:10;19.10;39.80
13928;DHT22;7036;50.834;4.718;2023-04-19T15:41:38;19.10;39.10
13928;DHT22;7036;50.834;4.718;2023-04-19T15:44:06;19.10;39.60
13928;DHT22;7036;50.834;4.718;2023-04-19T15:46:34;19.20;40.10
13928;DHT22;7036;50.834;4.718;2023-04-19T15:49:01;19.20;39.90
13928;DHT22;7036;50.834;4.718;2023-04-19T15:51:28;19.20;40.20